Anniston Metropolitan Airport Anniston US
ICAO: KANB
IATA: ANB
Category: Medium
Scheduled Services: No

Elevation: 612 ft
TransAlt. 18000 ft.

Airport Communications:
BIRMINGHAM APP/DEP:125.45
ASOS:119.675
CTAF:123.6
RDO:122.2
UNICOM:123

KANB Zoom In..

If you have problems with the map follow the link
https://www.worldairports.se/pages/airport.php?
ICAO=KANB

Runways:

(A) RW 05 length 7000 ft width 150 ft
ILS 111.50 / hdg 49

(B) RW 23 length 7000 ft width 150 ft
---- / hdg 229

Location; KANB
Day. 20 / Time. 21.34 Zulu
* Altimeter: 29.96
* Temperature: 11° c. 51.8°f.
* Wind from: 070° Speed 11 kn.
Dewpoint: 10° c.
Visibility: 10 Statute Miles.
Clouds: Scattered 800 ft.
Clouds: Overcast 1400 ft.

KANB 202134Z AUTO 07011KT 10SM -TSRA SCT008 OVC014 11/10 A2996 RMK AO2 LTG DSNT ALQDS RAE22B34 TSB2056E18B32 PRESFR P0005 T01110100


Wind From 070°
Speed 11 kn.

 
 
jpsmedia.com for Web Design worldairports.se 2019   terms of use